sensor_id;sensor_type;location;lat;lon;timestamp;pressure;altitude;pressure_sealevel;temperature;humidity
39129;BME280;24864;49.940;19.770;2022-10-04T00:01:48;98139.31;;;8.33;100.00
39129;BME280;24864;49.940;19.770;2022-10-04T00:04:21;98144.59;;;8.29;100.00
39129;BME280;24864;49.940;19.770;2022-10-04T00:06:56;98146.88;;;8.27;100.00
39129;BME280;24864;49.940;19.770;2022-10-04T00:09:28;98145.28;;;8.26;100.00
39129;BME280;24864;49.940;19.770;2022-10-04T00:11:59;98138.84;;;8.31;100.00
39129;BME280;24864;49.940;19.770;2022-10-04T00:14:29;98147.16;;;8.34;100.00
39129;BME280;24864;49.940;19.770;2022-10-04T00:17:00;98141.72;;;8.34;100.00
39129;BME280;24864;49.940;19.770;2022-10-04T00:19:39;98137.41;;;8.33;100.00
39129;BME280;24864;49.940;19.770;2022-10-04T00:22:08;98141.19;;;8.41;100.00
39129;BME280;24864;49.940;19.770;2022-10-04T00:30:52;98134.28;;;8.44;100.00
39129;BME280;24864;49.940;19.770;2022-10-04T00:33:35;98127.78;;;8.36;100.00
39129;BME280;24864;49.940;19.770;2022-10-04T00:39:38;98135.84;;;8.24;100.00
39129;BME280;24864;49.940;19.770;2022-10-04T00:45:24;98128.69;;;8.19;100.00
39129;BME280;24864;49.940;19.770;2022-10-04T00:48:02;98131.22;;;8.24;100.00
39129;BME280;24864;49.940;19.770;2022-10-04T00:50:37;98124.66;;;8.25;100.00
39129;BME280;24864;49.940;19.770;2022-10-04T00:53:16;98126.69;;;8.28;100.00
39129;BME280;24864;49.940;19.770;2022-10-04T00:55:48;98124.19;;;8.23;100.00
39129;BME280;24864;49.940;19.770;2022-10-04T00:58:23;98116.38;;;8.22;100.00
39129;BME280;24864;49.940;19.770;2022-10-04T01:00:53;98118.09;;;8.26;100.00
39129;BME280;24864;49.940;19.770;2022-10-04T01:03:26;98118.53;;;8.28;100.00
39129;BME280;24864;49.940;19.770;2022-10-04T01:05:59;98113.50;;;8.18;100.00
39129;BME280;24864;49.940;19.770;2022-10-04T01:08:31;98115.31;;;8.14;100.00
39129;BME280;24864;49.940;19.770;2022-10-04T01:11:03;98126.53;;;8.33;100.00
39129;BME280;24864;49.940;19.770;2022-10-04T01:13:37;98122.22;;;8.32;100.00
39129;BME280;24864;49.940;19.770;2022-10-04T01:16:12;98120.63;;;8.31;100.00
39129;BME280;24864;49.940;19.770;2022-10-04T01:18:42;98114.53;;;8.34;100.00
39129;BME280;24864;49.940;19.770;2022-10-04T01:21:23;98126.31;;;8.39;100.00
39129;BME280;24864;49.940;19.770;2022-10-04T01:24:16;98116.91;;;8.36;100.00
39129;BME280;24864;49.940;19.770;2022-10-04T01:26:44;98112.00;;;8.29;100.00
39129;BME280;24864;49.940;19.770;2022-10-04T01:29:14;98112.00;;;8.29;100.00
39129;BME280;24864;49.940;19.770;2022-10-04T01:31:45;98113.25;;;8.32;100.00
39129;BME280;24864;49.940;19.770;2022-10-04T01:34:15;98104.19;;;8.28;100.00
39129;BME280;24864;49.940;19.770;2022-10-04T01:36:44;98105.22;;;8.35;100.00
39129;BME280;24864;49.940;19.770;2022-10-04T01:39:16;98104.31;;;8.31;100.00
39129;BME280;24864;49.940;19.770;2022-10-04T01:41:48;98092.91;;;8.17;100.00
39129;BME280;24864;49.940;19.770;2022-10-04T01:44:29;98105.63;;;8.25;100.00
39129;BME280;24864;49.940;19.770;2022-10-04T01:47:00;98108.16;;;8.30;100.00
39129;BME280;24864;49.940;19.770;2022-10-04T01:49:32;98095.88;;;8.24;100.00
39129;BME280;24864;49.940;19.770;2022-10-04T01:52:04;98109.13;;;8.26;100.00
39129;BME280;24864;49.940;19.770;2022-10-04T01:54:37;98109.94;;;8.26;100.00
39129;BME280;24864;49.940;19.770;2022-10-04T01:57:11;98110.28;;;8.25;100.00
39129;BME280;24864;49.940;19.770;2022-10-04T01:59:45;98111.34;;;8.32;100.00
39129;BME280;24864;49.940;19.770;2022-10-04T02:02:20;98123.13;;;8.36;100.00
39129;BME280;24864;49.940;19.770;2022-10-04T02:04:52;98115.81;;;8.28;100.00
39129;BME280;24864;49.940;19.770;2022-10-04T02:07:23;98120.09;;;8.38;100.00
39129;BME280;24864;49.940;19.770;2022-10-04T02:09:56;98126.38;;;8.30;100.00
39129;BME280;24864;49.940;19.770;2022-10-04T02:12:27;98130.84;;;8.34;100.00
39129;BME280;24864;49.940;19.770;2022-10-04T02:14:58;98119.16;;;8.34;100.00
39129;BME280;24864;49.940;19.770;2022-10-04T02:17:29;98116.25;;;8.39;100.00
39129;BME280;24864;49.940;19.770;2022-10-04T02:20:00;98114.97;;;8.36;100.00
39129;BME280;24864;49.940;19.770;2022-10-04T02:22:29;98112.13;;;8.33;100.00
39129;BME280;24864;49.940;19.770;2022-10-04T02:24:59;98108.16;;;8.30;100.00
39129;BME280;24864;49.940;19.770;2022-10-04T02:27:28;98102.44;;;8.23;100.00
39129;BME280;24864;49.940;19.770;2022-10-04T02:30:01;98110.22;;;8.03;100.00
39129;BME280;24864;49.940;19.770;2022-10-04T02:32:31;98101.06;;;7.87;100.00
39129;BME280;24864;49.940;19.770;2022-10-04T02:35:18;98119.41;;;7.90;100.00
39129;BME280;24864;49.940;19.770;2022-10-04T02:37:49;98120.53;;;7.89;100.00
39129;BME280;24864;49.940;19.770;2022-10-04T02:40:25;98113.19;;;7.90;100.00
39129;BME280;24864;49.940;19.770;2022-10-04T02:42:59;98118.00;;;7.84;100.00
39129;BME280;24864;49.940;19.770;2022-10-04T02:45:37;98116.72;;;7.81;100.00
39129;BME280;24864;49.940;19.770;2022-10-04T02:48:21;98114.81;;;7.82;100.00
39129;BME280;24864;49.940;19.770;2022-10-04T02:50:55;98116.41;;;7.83;100.00
39129;BME280;24864;49.940;19.770;2022-10-04T02:53:30;98112.44;;;7.71;100.00
39129;BME280;24864;49.940;19.770;2022-10-04T02:56:02;98131.97;;;7.65;100.00
39129;BME280;24864;49.940;19.770;2022-10-04T02:58:31;98128.28;;;7.69;100.00
39129;BME280;24864;49.940;19.770;2022-10-04T03:00:59;98126.19;;;7.75;100.00
39129;BME280;24864;49.940;19.770;2022-10-04T03:03:28;98117.88;;;7.71;100.00
39129;BME280;24864;49.940;19.770;2022-10-04T03:06:00;98097.94;;;7.67;100.00
39129;BME280;24864;49.940;19.770;2022-10-04T03:08:33;98119.59;;;7.85;100.00
39129;BME280;24864;49.940;19.770;2022-10-04T03:11:03;98126.22;;;7.96;100.00
39129;BME280;24864;49.940;19.770;2022-10-04T03:13:32;98120.81;;;7.96;100.00
39129;BME280;24864;49.940;19.770;2022-10-04T03:16:03;98117.59;;;8.03;100.00
39129;BME280;24864;49.940;19.770;2022-10-04T03:18:33;98122.03;;;8.08;100.00
39129;BME280;24864;49.940;19.770;2022-10-04T03:21:04;98119.50;;;8.02;100.00
39129;BME280;24864;49.940;19.770;2022-10-04T03:23:33;98119.81;;;8.01;100.00
39129;BME280;24864;49.940;19.770;2022-10-04T03:26:06;98123.50;;;8.05;100.00
39129;BME280;24864;49.940;19.770;2022-10-04T03:28:40;98127.63;;;8.02;100.00
39129;BME280;24864;49.940;19.770;2022-10-04T03:31:08;98123.81;;;8.03;100.00
39129;BME280;24864;49.940;19.770;2022-10-04T03:33:37;98128.50;;;7.94;100.00
39129;BME280;24864;49.940;19.770;2022-10-04T03:36:05;98118.00;;;7.84;100.00
39129;BME280;24864;49.940;19.770;2022-10-04T03:38:34;98118.28;;;7.91;100.00
39129;BME280;24864;49.940;19.770;2022-10-04T03:41:04;98108.22;;;7.92;100.00
39129;BME280;24864;49.940;19.770;2022-10-04T03:43:37;98111.53;;;7.97;100.00
39129;BME280;24864;49.940;19.770;2022-10-04T03:46:09;98115.66;;;8.03;100.00
39129;BME280;24864;49.940;19.770;2022-10-04T03:48:40;98107.13;;;7.84;100.00
39129;BME280;24864;49.940;19.770;2022-10-04T03:51:13;98127.53;;;7.90;100.00
39129;BME280;24864;49.940;19.770;2022-10-04T03:53:43;98115.25;;;7.93;100.00
39129;BME280;24864;49.940;19.770;2022-10-04T03:56:16;98124.72;;;7.78;100.00
39129;BME280;24864;49.940;19.770;2022-10-04T03:58:48;98121.56;;;7.76;100.00
39129;BME280;24864;49.940;19.770;2022-10-04T04:01:25;98131.47;;;7.71;100.00
39129;BME280;24864;49.940;19.770;2022-10-04T04:04:02;98124.44;;;7.70;100.00
39129;BME280;24864;49.940;19.770;2022-10-04T04:06:39;98119.84;;;7.62;100.00
39129;BME280;24864;49.940;19.770;2022-10-04T04:09:17;98124.44;;;7.70;100.00
39129;BME280;24864;49.940;19.770;2022-10-04T04:11:49;98123.78;;;7.74;100.00
39129;BME280;24864;49.940;19.770;2022-10-04T04:14:21;98125.53;;;7.78;100.00
39129;BME280;24864;49.940;19.770;2022-10-04T04:16:52;98121.72;;;7.79;100.00
39129;BME280;24864;49.940;19.770;2022-10-04T04:19:23;98127.28;;;7.83;100.00
39129;BME280;24864;49.940;19.770;2022-10-04T04:21:53;98135.88;;;7.85;100.00
39129;BME280;24864;49.940;19.770;2022-10-04T04:24:24;98135.25;;;7.88;100.00
39129;BME280;24864;49.940;19.770;2022-10-04T04:26:57;98137.75;;;7.93;100.00
39129;BME280;24864;49.940;19.770;2022-10-04T04:29:27;98137.75;;;7.93;100.00
39129;BME280;24864;49.940;19.770;2022-10-04T04:32:01;98142.25;;;7.89;100.00
39129;BME280;24864;49.940;19.770;2022-10-04T04:34:33;98133.97;;;7.85;100.00
39129;BME280;24864;49.940;19.770;2022-10-04T04:37:03;98142.06;;;7.94;100.00
39129;BME280;24864;49.940;19.770;2022-10-04T04:39:31;98147.03;;;7.92;100.00
39129;BME280;24864;49.940;19.770;2022-10-04T04:42:16;98146.06;;;7.97;100.00
39129;BME280;24864;49.940;19.770;2022-10-04T04:44:46;98156.72;;;8.02;100.00
39129;BME280;24864;49.940;19.770;2022-10-04T04:47:29;98160.72;;;8.04;100.00
39129;BME280;24864;49.940;19.770;2022-10-04T04:50:03;98148.78;;;7.97;100.00
39129;BME280;24864;49.940;19.770;2022-10-04T04:52:32;98167.09;;;8.09;100.00
39129;BME280;24864;49.940;19.770;2022-10-04T04:55:02;98159.94;;;8.04;100.00
39129;BME280;24864;49.940;19.770;2022-10-04T04:57:32;98171.09;;;8.11;100.00
39129;BME280;24864;49.940;19.770;2022-10-04T05:00:00;98174.38;;;8.17;100.00
39129;BME280;24864;49.940;19.770;2022-10-04T05:02:31;98175.19;;;8.17;100.00
39129;BME280;24864;49.940;19.770;2022-10-04T05:05:21;98185.53;;;8.24;100.00
39129;BME280;24864;49.940;19.770;2022-10-04T05:08:03;98177.72;;;8.23;100.00
39129;BME280;24864;49.940;19.770;2022-10-04T05:10:35;98191.66;;;8.21;100.00
39129;BME280;24864;49.940;19.770;2022-10-04T05:13:09;98185.84;;;8.31;100.00
39129;BME280;24864;49.940;19.770;2022-10-04T05:15:39;98192.38;;;8.30;100.00
39129;BME280;24864;49.940;19.770;2022-10-04T05:18:13;98192.28;;;8.18;100.00
39129;BME280;24864;49.940;19.770;2022-10-04T05:20:47;98209.03;;;8.29;100.00
39129;BME280;24864;49.940;19.770;2022-10-04T05:23:16;98202.31;;;8.26;100.00
39129;BME280;24864;49.940;19.770;2022-10-04T05:25:44;98206.59;;;8.36;100.00
39129;BME280;24864;49.940;19.770;2022-10-04T05:28:15;98209.81;;;8.29;100.00
39129;BME280;24864;49.940;19.770;2022-10-04T05:30:48;98210.47;;;8.26;100.00
39129;BME280;24864;49.940;19.770;2022-10-04T05:33:23;98214.16;;;8.22;100.00
39129;BME280;24864;49.940;19.770;2022-10-04T05:36:19;98219.06;;;8.28;100.00
39129;BME280;24864;49.940;19.770;2022-10-04T05:38:55;98206.31;;;8.29;100.00
39129;BME280;24864;49.940;19.770;2022-10-04T05:41:33;98220.19;;;8.36;100.00
39129;BME280;24864;49.940;19.770;2022-10-04T05:44:19;98231.19;;;8.40;100.00
39129;BME280;24864;49.940;19.770;2022-10-04T05:46:49;98227.66;;;8.48;100.00
39129;BME280;24864;49.940;19.770;2022-10-04T05:49:19;98226.22;;;8.42;100.00
39129;BME280;24864;49.940;19.770;2022-10-04T05:51:49;98230.53;;;8.43;100.00
39129;BME280;24864;49.940;19.770;2022-10-04T05:54:21;98237.56;;;8.44;100.00
39129;BME280;24864;49.940;19.770;2022-10-04T05:57:01;98239.00;;;8.50;100.00
39129;BME280;24864;49.940;19.770;2022-10-04T05:59:49;98245.56;;;8.49;100.00
39129;BME280;24864;49.940;19.770;2022-10-04T06:02:36;98246.19;;;8.46;100.00
39129;BME280;24864;49.940;19.770;2022-10-04T06:05:13;98225.09;;;8.43;100.00
39129;BME280;24864;49.940;19.770;2022-10-04T06:07:52;98251.28;;;8.56;100.00
39129;BME280;24864;49.940;19.770;2022-10-04T06:10:48;98248.22;;;8.58;100.00
39129;BME280;24864;49.940;19.770;2022-10-04T06:13:31;98253.06;;;8.52;100.00
39129;BME280;24864;49.940;19.770;2022-10-04T06:16:15;98262.56;;;8.67;100.00
39129;BME280;24864;49.940;19.770;2022-10-04T06:19:21;98259.53;;;8.68;100.00
39129;BME280;24864;49.940;19.770;2022-10-04T06:22:04;98263.84;;;8.70;100.00
39129;BME280;24864;49.940;19.770;2022-10-04T06:24:35;98264.31;;;8.72;100.00
39129;BME280;24864;49.940;19.770;2022-10-04T06:27:10;98270.19;;;8.74;100.00
39129;BME280;24864;49.940;19.770;2022-10-04T06:29:44;98275.34;;;8.75;100.00
39129;BME280;24864;49.940;19.770;2022-10-04T06:32:34;98279.75;;;8.80;100.00
39129;BME280;24864;49.940;19.770;2022-10-04T06:35:32;98281.78;;;8.62;100.00
39129;BME280;24864;49.940;19.770;2022-10-04T06:38:39;98281.59;;;8.67;100.00
39129;BME280;24864;49.940;19.770;2022-10-04T06:41:26;98284.13;;;8.72;100.00
39129;BME280;24864;49.940;19.770;2022-10-04T06:44:21;98281.41;;;8.72;100.00
39129;BME280;24864;49.940;19.770;2022-10-04T06:46:56;98292.91;;;8.78;100.00
39129;BME280;24864;49.940;19.770;2022-10-04T06:49:40;98270.88;;;8.71;100.00
39129;BME280;24864;49.940;19.770;2022-10-04T06:52:25;98305.28;;;8.96;100.00
39129;BME280;24864;49.940;19.770;2022-10-04T06:58:12;98305.28;;;8.96;100.00
39129;BME280;24864;49.940;19.770;2022-10-04T07:00:50;98305.09;;;9.02;100.00
39129;BME280;24864;49.940;19.770;2022-10-04T07:03:23;98311.84;;;8.95;100.00
39129;BME280;24864;49.940;19.770;2022-10-04T07:05:57;98315.19;;;9.01;100.00
39129;BME280;24864;49.940;19.770;2022-10-04T07:08:34;98311.97;;;8.99;100.00
39129;BME280;24864;49.940;19.770;2022-10-04T07:11:11;98314.56;;;8.95;100.00
39129;BME280;24864;49.940;19.770;2022-10-04T07:13:47;98320.94;;;8.99;100.00
39129;BME280;24864;49.940;19.770;2022-10-04T07:16:28;98325.25;;;9.00;100.00
39129;BME280;24864;49.940;19.770;2022-10-04T07:19:08;98332.28;;;9.02;100.00
39129;BME280;24864;49.940;19.770;2022-10-04T07:21:47;98335.69;;;8.98;100.00
39129;BME280;24864;49.940;19.770;2022-10-04T07:24:24;98331.22;;;8.94;100.00
39129;BME280;24864;49.940;19.770;2022-10-04T07:26:54;98343.44;;;9.09;100.00
39129;BME280;24864;49.940;19.770;2022-10-04T07:29:26;98339.34;;;9.24;100.00
39129;BME280;24864;49.940;19.770;2022-10-04T07:32:05;98348.63;;;9.23;100.00
39129;BME280;24864;49.940;19.770;2022-10-04T07:34:38;98339.09;;;9.38;100.00
39129;BME280;24864;49.940;19.770;2022-10-04T07:37:12;98350.66;;;9.35;100.00
39129;BME280;24864;49.940;19.770;2022-10-04T07:39:46;98350.66;;;9.35;100.00
39129;BME280;24864;49.940;19.770;2022-10-04T07:42:27;98353.44;;;9.47;100.00
39129;BME280;24864;49.940;19.770;2022-10-04T07:45:08;98353.09;;;9.48;100.00
39129;BME280;24864;49.940;19.770;2022-10-04T07:47:37;98356.22;;;9.59;100.00
39129;BME280;24864;49.940;19.770;2022-10-04T07:50:19;98359.22;;;9.67;100.00
39129;BME280;24864;49.940;19.770;2022-10-04T07:52:56;98361.81;;;9.63;100.00
39129;BME280;24864;49.940;19.770;2022-10-04T07:55:29;98360.28;;;9.53;100.00
39129;BME280;24864;49.940;19.770;2022-10-04T07:58:18;98359.44;;;9.40;100.00
39129;BME280;24864;49.940;19.770;2022-10-04T08:00:53;98360.84;;;9.38;100.00
39129;BME280;24864;49.940;19.770;2022-10-04T08:03:40;98359.28;;;9.37;100.00
39129;BME280;24864;49.940;19.770;2022-10-04T08:06:16;98369.38;;;9.57;100.00
39129;BME280;24864;49.940;19.770;2022-10-04T08:09:02;98375.97;;;9.56;100.00
39129;BME280;24864;49.940;19.770;2022-10-04T08:11:40;98376.81;;;9.69;100.00
39129;BME280;24864;49.940;19.770;2022-10-04T08:14:23;98386.94;;;9.69;100.00
39129;BME280;24864;49.940;19.770;2022-10-04T08:17:05;98389.03;;;9.63;100.00
39129;BME280;24864;49.940;19.770;2022-10-04T08:19:48;98380.16;;;9.75;100.00
39129;BME280;24864;49.940;19.770;2022-10-04T08:22:26;98395.88;;;9.90;100.00
39129;BME280;24864;49.940;19.770;2022-10-04T08:25:04;98389.38;;;9.83;100.00
39129;BME280;24864;49.940;19.770;2022-10-04T08:27:58;98395.44;;;9.88;100.00
39129;BME280;24864;49.940;19.770;2022-10-04T08:31:18;98404.16;;;10.15;100.00
39129;BME280;24864;49.940;19.770;2022-10-04T08:34:04;98397.56;;;10.16;100.00
39129;BME280;24864;49.940;19.770;2022-10-04T08:36:47;98408.13;;;10.39;100.00
39129;BME280;24864;49.940;19.770;2022-10-04T08:39:35;98407.06;;;10.31;100.00
39129;BME280;24864;49.940;19.770;2022-10-04T08:42:34;98405.59;;;10.34;100.00
39129;BME280;24864;49.940;19.770;2022-10-04T08:45:20;98408.72;;;10.23;100.00
39129;BME280;24864;49.940;19.770;2022-10-04T08:48:46;98411.44;;;10.23;100.00
39129;BME280;24864;49.940;19.770;2022-10-04T08:54:49;98416.91;;;10.23;100.00
39129;BME280;24864;49.940;19.770;2022-10-04T08:57:49;98420.09;;;10.25;100.00
39129;BME280;24864;49.940;19.770;2022-10-04T09:00:29;98420.63;;;10.40;100.00
39129;BME280;24864;49.940;19.770;2022-10-04T09:03:30;98416.50;;;10.34;100.00
39129;BME280;24864;49.940;19.770;2022-10-04T09:09:30;98434.16;;;10.36;100.00
39129;BME280;24864;49.940;19.770;2022-10-04T09:12:21;98438.97;;;10.31;100.00
39129;BME280;24864;49.940;19.770;2022-10-04T09:15:20;98438.72;;;10.23;100.00
39129;BME280;24864;49.940;19.770;2022-10-04T09:18:01;98440.88;;;10.18;100.00
39129;BME280;24864;49.940;19.770;2022-10-04T09:20:42;98456.00;;;10.27;100.00
39129;BME280;24864;49.940;19.770;2022-10-04T09:26:20;98457.28;;;10.64;100.00
39129;BME280;24864;49.940;19.770;2022-10-04T09:29:15;98453.84;;;10.54;100.00
39129;BME280;24864;49.940;19.770;2022-10-04T09:32:24;98454.78;;;10.58;100.00
39129;BME280;24864;49.940;19.770;2022-10-04T09:35:32;98456.56;;;10.54;100.00
39129;BME280;24864;49.940;19.770;2022-10-04T09:38:36;98465.94;;;10.66;100.00
39129;BME280;24864;49.940;19.770;2022-10-04T09:41:23;98470.19;;;10.88;100.00
39129;BME280;24864;49.940;19.770;2022-10-04T09:44:15;98470.50;;;10.86;100.00
39129;BME280;24864;49.940;19.770;2022-10-04T09:46:54;98467.59;;;10.91;100.00
39129;BME280;24864;49.940;19.770;2022-10-04T09:49:45;98464.97;;;10.95;100.00
39129;BME280;24864;49.940;19.770;2022-10-04T09:52:28;98476.81;;;10.99;100.00
39129;BME280;24864;49.940;19.770;2022-10-04T09:55:12;98475.31;;;11.02;100.00
39129;BME280;24864;49.940;19.770;2022-10-04T09:57:54;98472.63;;;11.14;100.00
39129;BME280;24864;49.940;19.770;2022-10-04T10:00:30;98476.03;;;11.11;100.00
39129;BME280;24864;49.940;19.770;2022-10-04T10:03:24;98472.84;;;11.21;100.00
39129;BME280;24864;49.940;19.770;2022-10-04T10:08:41;98473.09;;;11.41;100.00
39129;BME280;24864;49.940;19.770;2022-10-04T10:11:22;98479.22;;;11.38;100.00
39129;BME280;24864;49.940;19.770;2022-10-04T10:14:28;98474.91;;;11.49;100.00
39129;BME280;24864;49.940;19.770;2022-10-04T10:17:09;98482.28;;;11.24;100.00
39129;BME280;24864;49.940;19.770;2022-10-04T10:22:55;98477.81;;;11.07;100.00
39129;BME280;24864;49.940;19.770;2022-10-04T10:25:40;98489.75;;;11.02;100.00
39129;BME280;24864;49.940;19.770;2022-10-04T10:28:28;98485.97;;;10.82;100.00
39129;BME280;24864;49.940;19.770;2022-10-04T10:31:20;98496.34;;;10.89;100.00
39129;BME280;24864;49.940;19.770;2022-10-04T10:37:12;98500.13;;;11.09;100.00
39129;BME280;24864;49.940;19.770;2022-10-04T10:40:06;98501.88;;;11.63;100.00
39129;BME280;24864;49.940;19.770;2022-10-04T10:42:59;98496.94;;;11.94;100.00
39129;BME280;24864;49.940;19.770;2022-10-04T10:45:46;98503.69;;;11.96;100.00
39129;BME280;24864;49.940;19.770;2022-10-04T10:48:34;98504.47;;;11.97;100.00
39129;BME280;24864;49.940;19.770;2022-10-04T10:51:12;98500.81;;;11.93;100.00
39129;BME280;24864;49.940;19.770;2022-10-04T10:54:26;98503.69;;;11.96;100.00
39129;BME280;24864;49.940;19.770;2022-10-04T10:57:08;98505.44;;;12.29;100.00
39129;BME280;24864;49.940;19.770;2022-10-04T11:09:27;98502.88;;;13.09;100.00
39129;BME280;24864;49.940;19.770;2022-10-04T11:12:14;98507.03;;;13.03;100.00
39129;BME280;24864;49.940;19.770;2022-10-04T11:17:54;98515.03;;;14.47;100.00
39129;BME280;24864;49.940;19.770;2022-10-04T11:20:47;98514.53;;;14.81;100.00
39129;BME280;24864;49.940;19.770;2022-10-04T11:27:07;98519.69;;;15.29;100.00
39129;BME280;24864;49.940;19.770;2022-10-04T11:30:02;98518.97;;;15.55;100.00
39129;BME280;24864;49.940;19.770;2022-10-04T11:32:53;98529.22;;;15.12;100.00
39129;BME280;24864;49.940;19.770;2022-10-04T11:38:50;98528.69;;;14.83;100.00
39129;BME280;24864;49.940;19.770;2022-10-04T11:41:28;98518.31;;;14.72;100.00
39129;BME280;24864;49.940;19.770;2022-10-04T11:44:10;98518.84;;;14.62;100.00
39129;BME280;24864;49.940;19.770;2022-10-04T11:46:49;98520.03;;;13.70;100.00
39129;BME280;24864;49.940;19.770;2022-10-04T11:49:35;98527.94;;;13.40;100.00
39129;BME280;24864;49.940;19.770;2022-10-04T11:55:32;98528.97;;;13.35;100.00
39129;BME280;24864;49.940;19.770;2022-10-04T11:58:12;98517.44;;;12.97;100.00
39129;BME280;24864;49.940;19.770;2022-10-04T12:01:14;98527.38;;;13.50;100.00
39129;BME280;24864;49.940;19.770;2022-10-04T12:04:07;98537.34;;;14.45;100.00
39129;BME280;24864;49.940;19.770;2022-10-04T12:06:55;98510.91;;;13.82;100.00
39129;BME280;24864;49.940;19.770;2022-10-04T12:09:37;98533.56;;;13.47;100.00
39129;BME280;24864;49.940;19.770;2022-10-04T12:12:36;98526.56;;;13.17;100.00
39129;BME280;24864;49.940;19.770;2022-10-04T12:15:29;98525.28;;;12.99;100.00
39129;BME280;24864;49.940;19.770;2022-10-04T12:21:10;98538.78;;;13.68;100.00
39129;BME280;24864;49.940;19.770;2022-10-04T12:24:00;98536.06;;;14.39;100.00
39129;BME280;24864;49.940;19.770;2022-10-04T12:26:47;98540.66;;;14.55;100.00
39129;BME280;24864;49.940;19.770;2022-10-04T12:32:50;98541.19;;;13.38;100.00
39129;BME280;24864;49.940;19.770;2022-10-04T12:35:28;98540.38;;;13.69;100.00
39129;BME280;24864;49.940;19.770;2022-10-04T12:38:20;98540.63;;;14.16;100.00
39129;BME280;24864;49.940;19.770;2022-10-04T12:40:55;98536.28;;;13.95;100.00
39129;BME280;24864;49.940;19.770;2022-10-04T12:43:32;98536.84;;;13.53;100.00
39129;BME280;24864;49.940;19.770;2022-10-04T12:46:14;98547.78;;;13.85;100.00
39129;BME280;24864;49.940;19.770;2022-10-04T12:49:02;98536.56;;;14.09;100.00
39129;BME280;24864;49.940;19.770;2022-10-04T12:51:44;98537.03;;;14.11;100.00
39129;BME280;24864;49.940;19.770;2022-10-04T12:54:29;98535.88;;;14.12;100.00
39129;BME280;24864;49.940;19.770;2022-10-04T12:57:07;98541.91;;;14.02;100.00
39129;BME280;24864;49.940;19.770;2022-10-04T12:59:50;98539.94;;;13.51;100.00
39129;BME280;24864;49.940;19.770;2022-10-04T13:02:43;98546.22;;;13.52;100.00
39129;BME280;24864;49.940;19.770;2022-10-04T13:05:19;98545.69;;;13.62;99.91
39129;BME280;24864;49.940;19.770;2022-10-04T13:08:04;98540.09;;;13.90;100.00
39129;BME280;24864;49.940;19.770;2022-10-04T13:10:41;98548.31;;;13.74;100.00
39129;BME280;24864;49.940;19.770;2022-10-04T13:13:31;98557.34;;;13.59;100.00
39129;BME280;24864;49.940;19.770;2022-10-04T13:16:10;98559.13;;;13.67;100.00
39129;BME280;24864;49.940;19.770;2022-10-04T13:19:12;98561.31;;;13.61;100.00
39129;BME280;24864;49.940;19.770;2022-10-04T13:22:09;98563.38;;;13.64;100.00
39129;BME280;24864;49.940;19.770;2022-10-04T13:24:58;98568.03;;;13.80;100.00
39129;BME280;24864;49.940;19.770;2022-10-04T13:27:39;98557.41;;;13.94;100.00
39129;BME280;24864;49.940;19.770;2022-10-04T13:30:17;98564.56;;;13.99;100.00
39129;BME280;24864;49.940;19.770;2022-10-04T13:32:56;98551.84;;;13.91;100.00
39129;BME280;24864;49.940;19.770;2022-10-04T13:35:31;98569.81;;;13.72;98.06
39129;BME280;24864;49.940;19.770;2022-10-04T13:38:17;98564.94;;;13.81;97.64
39129;BME280;24864;49.940;19.770;2022-10-04T13:41:02;98563.88;;;13.70;100.00
39129;BME280;24864;49.940;19.770;2022-10-04T13:43:59;98573.09;;;13.62;100.00
39129;BME280;24864;49.940;19.770;2022-10-04T13:46:38;98577.06;;;13.64;100.00
39129;BME280;24864;49.940;19.770;2022-10-04T13:49:25;98572.28;;;13.45;100.00
39129;BME280;24864;49.940;19.770;2022-10-04T13:52:09;98578.56;;;13.62;100.00
39129;BME280;24864;49.940;19.770;2022-10-04T13:55:11;98563.72;;;13.63;100.00
39129;BME280;24864;49.940;19.770;2022-10-04T13:58:13;98580.94;;;13.79;100.00
39129;BME280;24864;49.940;19.770;2022-10-04T14:01:01;98581.81;;;13.68;100.00
39129;BME280;24864;49.940;19.770;2022-10-04T14:03:44;98584.75;;;13.59;100.00
39129;BME280;24864;49.940;19.770;2022-10-04T14:12:39;98592.97;;;13.91;99.55
39129;BME280;24864;49.940;19.770;2022-10-04T14:15:30;98595.63;;;13.87;100.00
39129;BME280;24864;49.940;19.770;2022-10-04T14:18:25;98598.81;;;13.89;100.00
39129;BME280;24864;49.940;19.770;2022-10-04T14:21:20;98601.81;;;14.00;100.00
39129;BME280;24864;49.940;19.770;2022-10-04T14:24:22;98593.50;;;13.96;100.00
39129;BME280;24864;49.940;19.770;2022-10-04T14:30:22;98598.44;;;13.91;98.85
39129;BME280;24864;49.940;19.770;2022-10-04T14:33:08;98593.84;;;13.95;100.00
39129;BME280;24864;49.940;19.770;2022-10-04T14:35:45;98587.00;;;14.21;100.00
39129;BME280;24864;49.940;19.770;2022-10-04T14:38:34;98585.41;;;14.20;96.58
39129;BME280;24864;49.940;19.770;2022-10-04T14:44:40;98597.72;;;14.45;97.40
39129;BME280;24864;49.940;19.770;2022-10-04T14:47:29;98590.88;;;14.20;96.59
39129;BME280;24864;49.940;19.770;2022-10-04T14:50:16;98586.00;;;14.49;95.89
39129;BME280;24864;49.940;19.770;2022-10-04T14:52:59;98582.47;;;14.28;94.97
39129;BME280;24864;49.940;19.770;2022-10-04T14:55:44;98590.19;;;14.42;96.37
39129;BME280;24864;49.940;19.770;2022-10-04T14:58:25;98595.53;;;14.90;98.00
39129;BME280;24864;49.940;19.770;2022-10-04T15:01:05;98593.25;;;15.16;94.44
39129;BME280;24864;49.940;19.770;2022-10-04T15:03:49;98595.41;;;15.26;93.86
39129;BME280;24864;49.940;19.770;2022-10-04T15:06:26;98606.41;;;15.26;91.05
39129;BME280;24864;49.940;19.770;2022-10-04T15:12:23;98615.66;;;15.84;90.66
39129;BME280;24864;49.940;19.770;2022-10-04T15:15:34;98618.34;;;16.03;86.67